Time;durP1;ratioP1;P1;durP2;ratioP2;P2;SDS_P1;SDS_P2;PMS_P1;PMS_P2;Temp;Humidity;BMP_temperature;BMP_pressure;BME280_temperature;BME280_humidity;BME280_pressure;Samples;Min_cycle;Max_cycle;Signal;HPM_P1;HPM_P2
2023/06/20 00:01:10;;;;;;;12.63;11.73;;;;;;;18.37;78.21;92970.66;5053126;28;20218;-77
2023/06/20 00:03:35;;;;;;;13.77;12.57;;;;;;;18.47;77.75;92979.06;5051412;28;20202;-77
2023/06/20 00:06:00;;;;;;;14.93;13.77;;;;;;;18.33;78.46;92980.34;5049772;28;20250;-77
2023/06/20 00:08:26;;;;;;;12.60;11.47;;;;;;;18.32;78.00;92973.50;5050577;28;20183;-77
2023/06/20 00:10:51;;;;;;;13.13;12.00;;;;;;;18.14;78.98;92977.28;5064937;28;20214;-77
2023/06/20 00:13:17;;;;;;;14.37;13.37;;;;;;;18.16;78.33;92988.31;5070297;28;20205;-77
2023/06/20 00:15:43;;;;;;;14.83;13.47;;;;;;;18.14;78.71;92987.84;5069473;28;20225;-73
2023/06/20 00:18:09;;;;;;;13.67;12.53;;;;;;;18.13;78.96;92986.31;5070023;28;20182;-77
2023/06/20 00:20:35;;;;;;;12.50;11.60;;;;;;;18.23;78.63;92981.44;5069637;28;20523;-77
2023/06/20 00:23:02;;;;;;;13.40;12.47;;;;;;;18.12;78.61;92974.94;5069713;28;20189;-77
2023/06/20 00:25:28;;;;;;;13.63;12.60;;;;;;;18.05;79.29;92963.31;5069543;28;20241;-78
2023/06/20 00:27:53;;;;;;;14.00;12.80;;;;;;;17.92;79.35;92941.28;5070414;28;20241;-77
2023/06/20 00:30:19;;;;;;;14.40;13.20;;;;;;;18.10;79.36;92968.44;5069341;28;20231;-77
2023/06/20 00:32:44;;;;;;;12.80;11.87;;;;;;;17.72;79.33;92934.03;5069981;28;20185;-77
2023/06/20 00:35:10;;;;;;;14.03;13.00;;;;;;;18.03;79.52;92981.34;5069581;28;20228;-77
2023/06/20 00:37:38;;;;;;;12.70;11.80;;;;;;;17.94;80.35;92981.38;5069784;28;20169;-78
2023/06/20 00:40:07;;;;;;;14.57;12.10;;;;;;;17.78;79.88;92950.47;5069289;28;20248;-77
2023/06/20 00:42:33;;;;;;;13.17;12.20;;;;;;;17.83;80.04;92987.28;5102589;28;20844;-77
2023/06/20 00:44:58;;;;;;;13.37;12.23;;;;;;;17.92;79.56;92980.13;5068042;28;20310;-77
2023/06/20 00:47:24;;;;;;;12.07;11.07;;;;;;;17.72;79.62;92972.84;5078990;28;20208;-77
2023/06/20 00:49:51;;;;;;;12.90;11.87;;;;;;;17.90;79.48;92977.03;5072244;28;20285;-77
2023/06/20 00:52:19;;;;;;;13.27;12.27;;;;;;;17.78;80.68;92968.94;5079055;28;20196;-77
2023/06/20 00:54:47;;;;;;;13.20;12.10;;;;;;;17.83;81.12;92974.06;5071611;28;20292;-78
2023/06/20 00:57:14;;;;;;;12.73;11.73;;;;;;;17.98;80.79;92968.31;5069665;28;20178;-77
2023/06/20 00:59:43;;;;;;;12.73;11.70;;;;;;;17.76;81.57;92971.16;5072487;28;20218;-78
2023/06/20 01:02:10;;;;;;;13.67;12.47;;;;;;;17.63;82.93;92971.00;5060622;28;20185;-77
2023/06/20 01:04:36;;;;;;;12.70;11.80;;;;;;;17.70;83.24;92961.84;5069091;28;20212;-77
2023/06/20 01:07:28;;;;;;;14.67;13.60;;;;;;;17.56;83.83;92962.78;5102361;28;20185;-77
2023/06/20 01:10:13;;;;;;;13.40;12.17;;;;;;;17.59;82.89;92972.72;5058504;28;20230;-77
2023/06/20 01:12:55;;;;;;;13.33;12.23;;;;;;;17.54;83.18;92970.22;5068368;28;20288;-78
2023/06/20 01:15:33;;;;;;;14.03;12.83;;;;;;;17.53;82.95;92968.69;5068640;28;20247;-78
2023/06/20 01:18:17;;;;;;;13.90;12.60;;;;;;;17.53;82.37;92967.91;5069185;28;20174;-77
2023/06/20 01:20:48;;;;;;;14.77;13.43;;;;;;;17.27;82.16;92944.13;5069327;28;20317;-77
2023/06/20 01:23:34;;;;;;;15.37;13.70;;;;;;;17.37;83.00;92957.00;5069456;28;20207;-78
2023/06/20 01:26:17;;;;;;;12.73;11.43;;;;;;;17.44;83.85;92964.50;5069026;28;20217;-78
2023/06/20 01:28:58;;;;;;;14.33;12.93;;;;;;;17.27;84.49;92943.34;5069383;28;20253;-77
2023/06/20 01:31:46;;;;;;;15.23;12.33;;;;;;;17.29;84.16;92970.22;5057161;28;20224;-78
2023/06/20 01:34:16;;;;;;;14.00;12.50;;;;;;;17.34;84.28;92965.53;5066210;28;20261;-78
2023/06/20 01:36:47;;;;;;;13.23;11.93;;;;;;;17.31;84.59;92954.81;5072756;28;20193;-77
2023/06/20 01:39:19;;;;;;;13.93;12.73;;;;;;;17.41;84.67;92971.16;5072388;28;20176;-78
2023/06/20 01:41:47;;;;;;;13.97;12.77;;;;;;;17.25;84.74;92962.13;5073037;28;20170;-77
2023/06/20 01:44:14;;;;;;;13.07;12.10;;;;;;;17.27;84.27;92956.53;5072667;28;20173;-78
2023/06/20 01:46:40;;;;;;;14.20;12.90;;;;;;;17.24;83.97;92960.59;5072531;28;20188;-78
2023/06/20 01:49:07;;;;;;;13.27;12.17;;;;;;;17.26;83.10;92965.56;5071425;28;20189;-77
2023/06/20 01:51:33;;;;;;;13.07;11.97;;;;;;;17.11;83.27;92953.59;5060482;28;20177;-77
2023/06/20 01:54:02;;;;;;;14.27;12.77;;;;;;;17.29;83.96;92978.13;5072450;28;20277;-77
2023/06/20 01:56:29;;;;;;;13.43;12.33;;;;;;;17.29;84.01;92986.81;5072477;28;20201;-77
2023/06/20 01:58:56;;;;;;;16.07;13.07;;;;;;;17.12;83.54;92978.88;5075375;28;20172;-78
2023/06/20 02:01:22;;;;;;;13.47;12.33;;;;;;;17.16;82.67;92977.19;5072514;28;20224;-77
2023/06/20 02:03:50;;;;;;;14.90;13.50;;;;;;;17.17;82.81;92970.03;5083525;28;20180;-78
2023/06/20 02:06:17;;;;;;;15.07;13.07;;;;;;;16.95;83.50;92957.75;5072467;28;20217;-79
2023/06/20 02:08:42;;;;;;;13.63;12.63;;;;;;;17.16;84.55;92969.28;5077025;28;20337;-78
2023/06/20 02:11:09;;;;;;;12.80;11.80;;;;;;;17.26;84.12;92973.47;5072145;28;20271;-77
2023/06/20 02:13:36;;;;;;;13.97;12.90;;;;;;;17.31;84.10;92978.59;5072393;28;20226;-78
2023/06/20 02:16:05;;;;;;;13.67;12.37;;;;;;;16.94;86.03;92971.25;5072078;28;20245;-78
2023/06/20 02:18:31;;;;;;;14.83;13.63;;;;;;;16.93;84.67;92961.78;5072019;28;20182;-77
2023/06/20 02:21:00;;;;;;;12.83;11.83;;;;;;;17.11;85.14;92979.97;5072261;28;20282;-78
2023/06/20 02:23:27;;;;;;;14.83;13.63;;;;;;;16.88;85.00;92952.19;5072345;28;20235;-78
2023/06/20 02:26:08;;;;;;;13.43;12.33;;;;;;;17.02;84.99;92978.41;5072237;28;20230;-77
2023/06/20 02:28:36;;;;;;;13.40;12.07;;;;;;;17.04;84.69;92979.63;5072245;28;20216;-77
2023/06/20 02:31:03;;;;;;;13.43;12.33;;;;;;;16.94;85.50;92965.97;5071786;28;20233;-78
2023/06/20 02:33:32;;;;;;;13.70;12.60;;;;;;;16.82;85.74;92979.00;5071849;28;20206;-78
2023/06/20 02:36:01;;;;;;;12.83;11.77;;;;;;;16.78;85.97;92957.72;5071775;28;20225;-78
2023/06/20 02:38:27;;;;;;;17.23;13.63;;;;;;;17.05;85.38;92975.16;5071545;28;20173;-78
2023/06/20 02:40:52;;;;;;;14.33;12.87;;;;;;;16.91;85.50;92979.78;5071934;28;20213;-77
2023/06/20 02:43:18;;;;;;;13.97;12.53;;;;;;;16.69;86.66;92978.03;5071556;28;20190;-77
2023/06/20 02:45:49;;;;;;;15.37;13.03;;;;;;;16.54;86.68;92964.50;5072988;28;20228;-77
2023/06/20 02:48:27;;;;;;;12.97;11.87;;;;;;;16.84;85.76;92993.41;5071982;28;20178;-77
2023/06/20 02:51:10;;;;;;;12.70;11.80;;;;;;;16.64;85.43;92970.25;5071486;28;20651;-77
2023/06/20 02:53:47;;;;;;;13.50;12.30;;;;;;;16.92;85.13;92990.03;5071651;28;20207;-77
2023/06/20 02:56:15;;;;;;;13.17;11.97;;;;;;;16.63;85.52;92966.06;5071134;28;20224;-77
2023/06/20 02:58:45;;;;;;;13.17;12.27;;;;;;;16.88;84.62;92993.59;5073578;28;20211;-77
2023/06/20 03:01:14;;;;;;;12.37;11.40;;;;;;;16.94;84.30;92993.13;5071220;28;20214;-78
2023/06/20 03:03:44;;;;;;;14.07;13.00;;;;;;;17.13;83.63;92977.03;5080129;28;20193;-78
2023/06/20 03:06:12;;;;;;;13.07;12.07;;;;;;;17.22;84.31;93012.91;5070424;28;20543;-78
2023/06/20 03:08:42;;;;;;;13.33;11.97;;;;;;;17.66;81.62;93016.34;5070543;28;20213;-78
2023/06/20 03:11:08;;;;;;;13.73;12.53;;;;;;;17.94;80.58;93020.22;5064332;28;20285;-78
2023/06/20 03:13:33;;;;;;;17.13;13.17;;;;;;;17.78;80.27;93034.97;5071370;28;20232;-78
2023/06/20 03:21:01;;;;;;;14.97;13.67;;;;;;;16.58;87.84;93026.06;5108013;27;20306;-72
2023/06/20 03:23:26;;;;;;;14.13;12.97;;;;;;;17.01;85.34;93009.28;5088119;28;20203;-73
2023/06/20 03:25:53;;;;;;;14.90;13.70;;;;;;;17.29;83.16;93007.91;5089684;28;20224;-73
2023/06/20 03:28:18;;;;;;;14.63;13.53;;;;;;;17.97;82.01;93033.59;5087000;28;20183;-73
2023/06/20 03:30:44;;;;;;;14.40;13.13;;;;;;;18.63;78.73;93026.94;5082293;28;20225;-74
2023/06/20 03:33:09;;;;;;;14.90;13.70;;;;;;;18.79;78.19;93041.16;5083377;28;20253;-74
2023/06/20 03:35:35;;;;;;;13.57;12.40;;;;;;;18.84;77.16;93035.69;5087505;28;20218;-73
2023/06/20 03:38:00;;;;;;;14.30;13.20;;;;;;;18.80;77.30;93029.50;5093151;28;20197;-73
2023/06/20 03:40:26;;;;;;;15.53;14.23;;;;;;;18.06;81.87;93046.78;5092936;28;20331;-74
2023/06/20 03:42:51;;;;;;;14.03;12.77;;;;;;;18.43;80.31;93032.88;5091289;28;20185;-74
2023/06/20 03:45:17;;;;;;;14.43;13.10;;;;;;;18.58;80.77;93035.03;5091585;28;20315;-70
2023/06/20 03:47:42;;;;;;;14.50;13.40;;;;;;;18.88;79.42;93033.94;5089505;28;20207;-72
2023/06/20 03:50:08;;;;;;;15.80;14.50;;;;;;;19.09;78.49;93035.56;5086723;28;20231;-73
2023/06/20 03:52:33;;;;;;;15.17;13.90;;;;;;;19.27;77.68;93036.22;5090376;28;20201;-73
2023/06/20 03:54:58;;;;;;;16.50;14.93;;;;;;;19.53;75.70;93038.75;5091165;28;20235;-73
2023/06/20 03:57:24;;;;;;;19.73;17.83;;;;;;;19.66;75.65;93049.09;5090730;28;20228;-74
2023/06/20 03:59:49;;;;;;;15.77;14.17;;;;;;;19.76;74.84;93034.69;5090359;28;20225;-77
2023/06/20 04:02:15;;;;;;;15.60;14.07;;;;;;;19.51;76.88;93041.72;5085382;28;20192;-69
2023/06/20 04:04:40;;;;;;;16.30;14.90;;;;;;;19.67;77.24;93053.31;5087564;28;20295;-71
2023/06/20 04:07:08;;;;;;;18.53;16.83;;;;;;;19.87;76.06;93049.88;5089255;28;20186;-71
2023/06/20 04:09:33;;;;;;;16.40;15.00;;;;;;;20.09;75.16;93041.56;5084876;28;20221;-70
2023/06/20 04:11:59;;;;;;;18.57;16.63;;;;;;;20.69;73.22;93054.25;5087673;28;20190;-68
2023/06/20 04:14:24;;;;;;;18.53;15.90;;;;;;;20.81;72.20;93050.84;5083559;28;20276;-68
2023/06/20 04:16:50;;;;;;;17.17;15.70;;;;;;;20.41;73.48;93043.47;5083320;28;20198;-69
2023/06/20 04:19:16;;;;;;;15.93;14.53;;;;;;;20.68;72.86;93048.16;5090917;28;20304;-75
2023/06/20 04:21:42;;;;;;;18.83;14.40;;;;;;;20.91;71.98;93053.03;5087639;28;20226;-71
2023/06/20 04:24:07;;;;;;;16.77;15.07;;;;;;;20.99;71.55;93063.59;5094939;28;20191;-72
2023/06/20 04:26:32;;;;;;;15.23;13.77;;;;;;;20.97;71.86;93049.09;5081418;28;20188;-70
2023/06/20 04:28:58;;;;;;;19.00;16.20;;;;;;;21.51;69.16;93053.06;5093282;28;20199;-71
2023/06/20 04:31:24;;;;;;;18.55;16.77;;;;;;;21.58;70.35;93063.91;5083444;28;20230;-71
2023/06/20 04:33:50;;;;;;;20.85;15.88;;;;;;;21.78;71.73;93065.66;5068939;28;20200;-74
2023/06/20 04:36:15;;;;;;;17.50;15.48;;;;;;;24.33;62.00;93062.47;5051187;28;20233;-74
2023/06/20 04:38:43;;;;;;;17.88;16.17;;;;;;;24.34;59.70;93069.38;5048481;28;20187;-71
2023/06/20 04:41:09;;;;;;;16.83;15.13;;;;;;;23.53;62.13;93064.97;5048485;28;20235;-70
2023/06/20 04:43:35;;;;;;;19.38;16.35;;;;;;;22.30;67.85;93063.75;5044956;28;20190;-71
2023/06/20 04:46:01;;;;;;;17.60;15.35;;;;;;;22.01;68.11;93059.50;5070080;28;20235;-74
2023/06/20 04:48:30;;;;;;;17.80;15.32;;;;;;;22.22;67.13;93072.63;5070755;28;20256;-71
2023/06/20 04:50:56;;;;;;;17.20;15.57;;;;;;;22.03;67.35;93083.09;5073345;28;20236;-70
2023/06/20 04:53:28;;;;;;;19.58;17.42;;;;;;;20.72;72.92;93080.13;5072624;28;20241;-74
2023/06/20 04:55:54;;;;;;;17.40;15.32;;;;;;;20.85;73.43;93083.56;5070743;28;20293;-75
2023/06/20 04:58:19;;;;;;;18.42;16.55;;;;;;;20.76;74.89;93080.25;5068086;28;20200;-74
2023/06/20 05:00:45;;;;;;;18.13;15.60;;;;;;;20.95;74.43;93083.16;5050990;28;20235;-74
2023/06/20 05:03:10;;;;;;;21.57;16.10;;;;;;;21.59;71.11;93081.38;5069272;28;20251;-74
2023/06/20 05:05:36;;;;;;;19.02;17.23;;;;;;;22.35;67.73;93092.75;5068955;28;20223;-74
2023/06/20 05:08:01;;;;;;;18.25;16.23;;;;;;;22.65;66.84;93093.97;5066340;28;20193;-74
2023/06/20 05:10:27;;;;;;;18.75;17.05;;;;;;;23.25;63.84;93093.63;5052599;28;20241;-74
2023/06/20 05:12:52;;;;;;;21.58;16.75;;;;;;;23.08;64.28;93104.59;5052077;28;20201;-74
2023/06/20 05:15:23;;;;;;;23.73;17.13;;;;;;;23.27;64.00;93111.94;5062571;28;20221;-74
2023/06/20 05:17:52;;;;;;;20.50;16.23;;;;;;;24.83;57.50;93105.06;5071481;28;20191;-74
2023/06/20 05:20:18;;;;;;;18.42;16.65;;;;;;;26.85;51.39;93115.72;5069488;28;20244;-75
2023/06/20 05:22:43;;;;;;;18.27;16.33;;;;;;;25.71;54.29;93114.59;5073295;28;20243;-75
2023/06/20 05:25:09;;;;;;;18.73;15.85;;;;;;;24.73;57.63;93102.94;5068531;28;20239;-74
2023/06/20 05:27:34;;;;;;;16.88;15.23;;;;;;;23.60;61.95;93083.00;5070055;28;20196;-74
2023/06/20 05:30:00;;;;;;;16.88;15.38;;;;;;;23.59;63.07;93076.91;5069044;28;20263;-75
2023/06/20 05:32:25;;;;;;;17.77;16.10;;;;;;;22.49;65.27;93071.09;5069363;28;20191;-74
2023/06/20 05:34:51;;;;;;;18.08;15.93;;;;;;;24.71;59.23;93075.06;5069640;28;20252;-74
2023/06/20 05:37:16;;;;;;;18.05;16.35;;;;;;;26.16;54.79;93089.63;5068507;28;20188;-75
2023/06/20 05:39:42;;;;;;;20.35;16.35;;;;;;;29.39;45.80;93103.53;5068336;28;20231;-75
2023/06/20 05:42:07;;;;;;;17.75;15.70;;;;;;;32.35;37.47;93111.91;5066473;28;20186;-74
2023/06/20 05:44:33;;;;;;;18.63;15.63;;;;;;;30.07;41.25;93101.59;5065402;28;20244;-74
2023/06/20 05:46:58;;;;;;;34.20;16.33;;;;;;;34.27;33.71;93109.69;5064027;28;20726;-75
2023/06/20 05:49:23;;;;;;;15.98;13.95;;;;;;;34.57;32.82;93114.19;5063332;28;20240;-75
2023/06/20 05:51:49;;;;;;;16.38;14.57;;;;;;;35.44;30.37;93117.84;5064724;28;20182;-75
2023/06/20 05:54:14;;;;;;;17.15;13.38;;;;;;;38.17;27.20;93119.00;5064580;28;20197;-75
2023/06/20 05:56:40;;;;;;;14.77;13.35;;;;;;;38.99;25.96;93124.00;5069987;28;20189;-75
2023/06/20 05:59:05;;;;;;;14.88;13.45;;;;;;;39.18;25.64;93125.63;5069113;28;20237;-75
2023/06/20 06:01:31;;;;;;;14.43;13.02;;;;;;;38.97;25.21;93126.38;5069720;28;20189;-74
2023/06/20 06:03:57;;;;;;;14.93;13.48;;;;;;;37.65;26.69;93121.41;5054557;28;20185;-75
2023/06/20 06:06:24;;;;;;;16.02;13.45;;;;;;;37.10;27.58;93125.34;5064486;28;20244;-74
2023/06/20 06:08:50;;;;;;;16.88;14.63;;;;;;;35.63;29.22;93118.97;5068608;28;20205;-75
2023/06/20 06:11:16;;;;;;;21.80;14.65;;;;;;;35.86;29.21;93128.97;5060134;28;20228;-72
2023/06/20 06:13:42;;;;;;;17.67;14.38;;;;;;;36.52;28.89;93149.06;5064350;28;20197;-72
2023/06/20 06:16:07;;;;;;;19.13;14.13;;;;;;;36.74;27.21;93152.00;5068303;28;20224;-72
2023/06/20 06:18:33;;;;;;;17.35;14.30;;;;;;;36.30;27.82;93150.06;5067240;28;20222;-72
2023/06/20 06:20:58;;;;;;;21.02;15.18;;;;;;;36.54;28.53;93152.13;5048433;28;20235;-72
2023/06/20 06:23:24;;;;;;;20.70;14.48;;;;;;;35.40;29.31;93146.28;5050085;28;20202;-73
2023/06/20 06:25:50;;;;;;;15.05;13.48;;;;;;;37.74;26.07;93152.31;5035934;28;20230;-72
2023/06/20 06:28:16;;;;;;;19.77;15.32;;;;;;;37.01;26.85;93147.00;5029121;28;20183;-72
2023/06/20 06:30:42;;;;;;;16.38;14.77;;;;;;;34.70;31.23;93145.72;5019446;28;20712;-72
2023/06/20 06:33:08;;;;;;;18.40;14.07;;;;;;;37.90;26.79;93154.16;5029498;28;20194;-73
2023/06/20 06:35:34;;;;;;;17.02;14.27;;;;;;;38.35;26.03;93152.69;5039756;28;20241;-73
2023/06/20 06:38:00;;;;;;;19.92;14.52;;;;;;;38.20;25.82;93159.81;5048352;28;20304;-71
2023/06/20 06:40:25;;;;;;;15.20;13.80;;;;;;;38.47;25.50;93154.63;5044252;28;20242;-73
2023/06/20 06:42:51;;;;;;;17.52;14.07;;;;;;;34.16;31.61;93128.06;5048562;28;20182;-72
2023/06/20 06:45:17;;;;;;;23.35;17.85;;;;;;;35.28;31.08;93109.66;5047308;28;21210;-75
2023/06/20 06:47:42;;;;;;;17.38;14.30;;;;;;;37.89;26.96;93137.00;5048644;28;20194;-75
2023/06/20 06:50:08;;;;;;;17.38;14.40;;;;;;;31.48;36.24;93108.00;5048065;28;20249;-74
2023/06/20 06:52:34;;;;;;;19.83;13.60;;;;;;;31.72;36.17;93101.63;5048746;28;20182;-74
2023/06/20 06:55:00;;;;;;;16.15;13.50;;;;;;;31.20;39.93;93098.13;5047879;28;20230;-73
2023/06/20 06:57:25;;;;;;;15.55;13.23;;;;;;;27.21;46.30;93092.75;5048614;28;20194;-74
2023/06/20 06:59:51;;;;;;;14.68;12.93;;;;;;;28.63;44.58;93080.66;5047357;28;20248;-74
2023/06/20 07:02:16;;;;;;;15.02;13.43;;;;;;;26.26;50.30;93087.06;5048846;28;20185;-73
2023/06/20 07:04:41;;;;;;;16.52;14.07;;;;;;;26.49;52.75;93086.97;5048305;28;20229;-72
2023/06/20 07:07:07;;;;;;;14.73;13.32;;;;;;;26.64;51.24;93094.84;5048848;28;20209;-74
2023/06/20 07:09:32;;;;;;;19.90;17.67;;;;;;;27.02;52.07;93091.00;5048178;28;20226;-75
2023/06/20 07:11:58;;;;;;;18.17;14.73;;;;;;;26.93;50.23;93074.44;5049070;28;20277;-74
2023/06/20 07:14:23;;;;;;;14.57;13.27;;;;;;;26.59;52.42;93072.91;5048023;28;20234;-74
2023/06/20 07:16:48;;;;;;;17.08;15.40;;;;;;;26.32;55.55;93084.88;5047880;28;20220;-74
2023/06/20 07:19:14;;;;;;;16.25;14.68;;;;;;;25.88;54.75;93071.25;5052883;28;20351;-74
2023/06/20 07:21:39;;;;;;;16.98;15.38;;;;;;;26.70;52.00;93079.19;5068279;28;20193;-73
2023/06/20 07:24:05;;;;;;;16.67;15.10;;;;;;;26.60;52.89;93080.59;5068827;28;20192;-72
2023/06/20 07:26:30;;;;;;;16.98;14.75;;;;;;;25.72;54.48;93077.88;5068637;28;20223;-74
2023/06/20 07:28:55;;;;;;;16.65;14.95;;;;;;;26.22;51.86;93086.28;5050288;28;20246;-74
2023/06/20 07:31:21;;;;;;;18.25;15.55;;;;;;;26.12;52.41;93080.75;5068758;28;20232;-75
2023/06/20 07:33:47;;;;;;;16.95;15.25;;;;;;;25.94;54.85;93077.84;5068543;28;20215;-75
2023/06/20 07:36:13;;;;;;;65.80;22.52;;;;;;;26.39;55.45;93091.06;5067535;28;20255;-74
2023/06/20 07:38:39;;;;;;;50.67;18.20;;;;;;;26.45;48.85;93089.59;5068117;28;20185;-74
2023/06/20 07:41:04;;;;;;;59.55;20.15;;;;;;;26.91;47.15;93095.50;5066152;28;20262;-73
2023/06/20 07:43:30;;;;;;;15.52;11.85;;;;;;;26.27;45.62;93083.25;5066425;28;20184;-73
2023/06/20 07:45:55;;;;;;;47.28;16.38;;;;;;;26.34;43.37;93088.72;5070868;28;20224;-73
2023/06/20 07:48:27;;;;;;;169.25;31.10;;;;;;;26.55;45.68;93094.31;5071661;28;20267;-73
2023/06/20 07:50:52;;;;;;;62.90;17.48;;;;;;;26.55;44.65;93093.56;5080468;28;20233;-75
2023/06/20 07:53:18;;;;;;;12.27;11.27;;;;;;;27.08;40.90;93089.56;5074149;28;20188;-73
2023/06/20 07:55:43;;;;;;;12.05;10.50;;;;;;;26.45;41.82;93080.78;5076308;28;20246;-74
2023/06/20 07:58:09;;;;;;;14.48;11.65;;;;;;;25.88;42.04;93094.56;5068925;28;20192;-75
2023/06/20 08:00:34;;;;;;;13.00;11.52;;;;;;;26.09;44.41;93068.09;5072528;28;20220;-73
2023/06/20 08:03:00;;;;;;;12.52;11.52;;;;;;;25.89;43.70;93094.19;5072508;28;20221;-74
2023/06/20 08:05:25;;;;;;;12.05;11.15;;;;;;;26.85;43.93;93101.56;5072426;28;20229;-74
2023/06/20 08:07:50;;;;;;;13.00;11.85;;;;;;;26.56;40.31;93095.88;5070835;28;20181;-74
2023/06/20 08:10:16;;;;;;;14.88;13.23;;;;;;;27.37;43.42;93109.38;5070590;28;20259;-74
2023/06/20 08:12:41;;;;;;;12.95;11.85;;;;;;;27.22;39.00;93086.22;5070963;28;20193;-72
2023/06/20 08:15:07;;;;;;;12.90;11.77;;;;;;;27.84;39.01;93099.41;5071067;28;20231;-76
2023/06/20 08:17:32;;;;;;;13.05;11.82;;;;;;;27.52;38.76;93092.25;5071601;28;20200;-73
2023/06/20 08:19:59;;;;;;;22.42;18.15;;;;;;;27.38;41.97;93079.50;5070762;28;20236;-75
2023/06/20 08:22:26;;;;;;;18.98;13.13;;;;;;;27.45;40.46;93113.66;5071772;28;20177;-69
2023/06/20 08:24:51;;;;;;;13.88;12.27;;;;;;;27.37;39.21;93109.38;5076287;28;20235;-70
2023/06/20 08:27:17;;;;;;;12.63;11.57;;;;;;;27.75;39.75;93103.56;5075868;28;20193;-70
2023/06/20 08:29:42;;;;;;;16.00;13.35;;;;;;;27.93;40.86;93107.16;5070953;28;20289;-71
2023/06/20 08:32:08;;;;;;;13.00;11.85;;;;;;;28.37;38.65;93110.47;5070846;28;20193;-71
2023/06/20 08:34:33;;;;;;;11.85;10.85;;;;;;;27.78;38.24;93105.50;5071351;28;20292;-70
2023/06/20 08:36:58;;;;;;;12.30;11.35;;;;;;;27.82;40.38;93106.28;5071145;28;20177;-71
2023/06/20 08:39:24;;;;;;;14.30;11.18;;;;;;;26.53;40.94;93101.94;5070698;28;20233;-71
2023/06/20 08:41:50;;;;;;;12.85;11.70;;;;;;;28.59;36.72;93112.16;5076236;28;20249;-71
2023/06/20 08:44:16;;;;;;;13.25;11.57;;;;;;;28.92;37.58;93119.91;5061622;28;20192;-70
2023/06/20 08:46:41;;;;;;;15.27;12.13;;;;;;;27.43;38.42;93114.03;5058733;28;20194;-70
2023/06/20 08:49:07;;;;;;;17.02;11.95;;;;;;;27.42;41.00;93120.53;5061734;28;20188;-71
2023/06/20 08:51:37;;;;;;;13.07;11.88;;;;;;;26.99;41.06;93107.81;5070749;28;20208;-70
2023/06/20 08:54:03;;;;;;;12.50;11.30;;;;;;;27.49;39.23;93119.81;5070958;28;20216;-71
2023/06/20 08:56:28;;;;;;;14.57;13.07;;;;;;;27.33;39.66;93101.28;5067841;28;21241;-69
2023/06/20 08:58:54;;;;;;;22.75;15.00;;;;;;;27.44;41.56;93115.56;5070998;28;20242;-69
2023/06/20 09:01:19;;;;;;;15.43;12.80;;;;;;;27.60;42.03;93121.44;5069994;28;20236;-69
2023/06/20 09:03:44;;;;;;;13.38;12.32;;;;;;;26.14;43.30;93114.06;5070603;28;20250;-69
2023/06/20 09:06:11;;;;;;;18.50;11.90;;;;;;;27.09;43.20;93117.13;5071102;28;20227;-69
2023/06/20 09:08:40;;;;;;;12.98;11.68;;;;;;;26.84;42.94;93108.03;5078085;28;20204;-69
2023/06/20 09:11:12;;;;;;;14.80;13.27;;;;;;;27.53;40.31;93116.03;5069241;28;20233;-68
2023/06/20 09:13:38;;;;;;;12.57;11.55;;;;;;;27.61;39.81;93106.13;5076929;28;20236;-68
2023/06/20 09:16:11;;;;;;;16.30;11.48;;;;;;;27.55;40.32;93102.25;5071818;28;20226;-69
2023/06/20 09:18:40;;;;;;;18.70;12.10;;;;;;;27.37;41.49;93106.69;5086578;28;20200;-70
2023/06/20 09:21:06;;;;;;;12.00;11.10;;;;;;;27.45;40.29;93114.44;5076565;28;20219;-69
2023/06/20 09:23:33;;;;;;;12.73;11.75;;;;;;;26.92;42.00;93109.66;5074907;28;20226;-70
2023/06/20 09:26:17;;;;;;;14.25;12.65;;;;;;;27.14;42.85;93111.44;5080693;28;20256;-72
2023/06/20 09:28:44;;;;;;;12.60;11.50;;;;;;;26.73;42.27;93089.97;5072847;28;20193;-71
2023/06/20 09:31:10;;;;;;;12.55;11.57;;;;;;;26.51;42.91;93090.81;5068250;28;20287;-70
2023/06/20 09:33:38;;;;;;;12.55;11.35;;;;;;;26.63;43.00;93095.19;5070048;28;20193;-69
2023/06/20 09:36:30;;;;;;;12.50;11.50;;;;;;;27.72;41.37;93097.00;5052033;28;20217;-69
2023/06/20 09:38:56;;;;;;;13.32;12.02;;;;;;;26.59;44.08;93097.81;5047483;28;20249;-70
2023/06/20 09:41:22;;;;;;;13.05;11.70;;;;;;;26.74;42.93;93104.88;5044670;28;20222;-69
2023/06/20 09:43:47;;;;;;;14.07;11.50;;;;;;;27.57;42.69;93097.25;5052207;28;20197;-70
2023/06/20 09:46:13;;;;;;;12.50;11.40;;;;;;;27.83;43.01;93091.72;5049207;28;20229;-69
2023/06/20 09:48:39;;;;;;;13.52;12.15;;;;;;;27.52;40.54;93093.00;5051838;28;20190;-70
2023/06/20 09:51:08;;;;;;;13.60;12.25;;;;;;;27.53;42.12;93096.47;5049635;28;20277;-70
2023/06/20 09:53:51;;;;;;;12.77;11.68;;;;;;;27.54;42.40;93095.31;5050340;28;20246;-70
2023/06/20 09:56:19;;;;;;;14.15;12.77;;;;;;;27.44;45.00;93090.66;5046777;28;20226;-71
2023/06/20 09:58:46;;;;;;;14.18;12.18;;;;;;;27.47;44.06;93095.28;5059660;28;20221;-70
2023/06/20 10:01:20;;;;;;;12.32;11.23;;;;;;;26.46;45.36;93093.81;5049744;28;20226;-70
2023/06/20 10:03:46;;;;;;;12.43;11.43;;;;;;;26.63;45.19;93097.84;5040800;28;20176;-71
2023/06/20 10:06:13;;;;;;;14.63;13.25;;;;;;;27.28;45.42;93093.59;5046278;28;20237;-71
2023/06/20 10:08:40;;;;;;;13.57;12.38;;;;;;;27.38;43.20;93102.88;5048373;28;20189;-72
2023/06/20 10:11:05;;;;;;;14.38;13.20;;;;;;;27.24;43.37;93075.91;5074838;28;20247;-71
2023/06/20 10:13:31;;;;;;;13.63;12.32;;;;;;;27.43;41.54;93084.53;5078518;28;20703;-70
2023/06/20 10:15:59;;;;;;;13.18;11.98;;;;;;;26.57;44.19;93084.00;5070495;28;20218;-72
2023/06/20 10:18:27;;;;;;;12.73;11.55;;;;;;;26.80;48.22;93091.94;5077869;28;20204;-77
2023/06/20 10:20:53;;;;;;;13.07;11.70;;;;;;;27.22;46.39;93078.19;5074913;28;20241;-76
2023/06/20 10:23:22;;;;;;;12.20;11.10;;;;;;;28.01;43.59;93084.56;5071167;28;20188;-71
2023/06/20 10:25:51;;;;;;;16.50;12.98;;;;;;;28.25;44.17;93094.69;5068756;28;20227;-71
2023/06/20 10:28:19;;;;;;;13.15;12.05;;;;;;;28.23;41.47;93088.91;5070063;28;20204;-70
2023/06/20 10:30:53;;;;;;;12.55;11.65;;;;;;;27.56;43.00;93091.16;5069536;28;20252;-72
2023/06/20 10:33:28;;;;;;;12.77;11.63;;;;;;;27.34;43.53;93061.84;5070637;28;20185;-72
2023/06/20 10:35:59;;;;;;;13.73;12.48;;;;;;;28.03;42.09;93068.88;5070825;28;20240;-71
2023/06/20 10:38:25;;;;;;;13.05;11.95;;;;;;;28.20;45.57;93095.03;5083541;28;20177;-71
2023/06/20 10:41:13;;;;;;;12.60;11.60;;;;;;;28.48;41.07;93100.59;5070323;28;20289;-72
2023/06/20 10:43:58;;;;;;;12.98;11.68;;;;;;;27.82;45.53;93090.16;5066624;28;20178;-71
2023/06/20 10:46:41;;;;;;;13.27;11.93;;;;;;;28.51;39.61;93090.97;5070062;28;20236;-71
2023/06/20 10:49:09;;;;;;;13.23;12.05;;;;;;;28.53;38.98;93078.69;5077774;28;20193;-72
2023/06/20 10:51:47;;;;;;;12.82;11.52;;;;;;;27.88;41.77;93081.41;5071753;28;20185;-70
2023/06/20 10:54:13;;;;;;;12.93;11.93;;;;;;;28.56;40.86;93085.25;5063537;28;20188;-72
2023/06/20 10:56:38;;;;;;;13.95;12.75;;;;;;;28.02;41.55;93078.03;5074579;28;20178;-71
2023/06/20 10:59:11;;;;;;;12.35;11.25;;;;;;;27.63;41.26;93066.25;5066547;28;20185;-72
2023/06/20 11:01:37;;;;;;;12.38;11.35;;;;;;;27.84;42.71;93069.88;5071538;28;20177;-72
2023/06/20 11:04:10;;;;;;;13.32;12.13;;;;;;;28.33;40.89;93069.38;5072342;28;20434;-72
2023/06/20 11:06:36;;;;;;;12.40;11.40;;;;;;;27.95;41.76;93051.16;5070591;28;20174;-72
2023/06/20 11:09:01;;;;;;;12.55;11.35;;;;;;;28.41;40.30;93079.00;5070269;28;20216;-72
2023/06/20 11:11:36;;;;;;;13.27;12.18;;;;;;;28.15;39.97;93068.53;5071533;28;21130;-72
2023/06/20 11:14:15;;;;;;;13.02;11.82;;;;;;;28.01;41.10;93063.09;5067936;28;20185;-73
2023/06/20 11:16:42;;;;;;;12.50;11.50;;;;;;;27.94;40.80;93054.97;5071157;28;20184;-71
2023/06/20 11:19:08;;;;;;;13.35;12.25;;;;;;;27.96;41.32;93058.84;5071356;28;20263;-72
2023/06/20 11:21:34;;;;;;;11.40;10.50;;;;;;;28.06;39.96;93041.25;5071477;28;20177;-72
2023/06/20 11:24:00;;;;;;;13.13;11.85;;;;;;;28.35;41.12;93067.09;5072259;28;20189;-73